Old Mobeetie, Texas
Current Conditions -  °F | °C
As of 7:55 PM on Saturday 20 Dec 2014 (Local Time) from KHHF Reporting Station
Clear Clear  
Wind Chill: 36°   Ceiling: Unl
Heat Index: 42°   Visibility: 10mi
Dew Point: 38°   Wind: 10mph
Humidity: 86%   Direction: 170°S
Pressure: 30.04"   Gusts: 17mph
Location:  35.5155°N, 100.433°W
Report Text: KHHF 210155Z AUTO 17009G15KT 10SM CLR 06/04 A3004 RMK AO2 T00570035
Loading
Personal Weather Stations






























Interactive Weather Map New forecast layout! Learn more

10-Day Weather Forecast

Advertisements
Track Severe Weather on mobile